Time;durP1;ratioP1;P1;durP2;ratioP2;P2;SDS_P1;SDS_P2;PMS_P1;PMS_P2;Temp;Humidity;BMP_temperature;BMP_pressure;BME280_temperature;BME280_humidity;BME280_pressure;Samples;Min_cycle;Max_cycle;Signal;HPM_P1;HPM_P2
2022/09/12 00:01:14;;;;;;;6.50;4.80;;;18.70;70.20;;;21.39;52.12;101741.22;5031854;28;20652;-59
2022/09/12 00:03:42;;;;;;;5.90;5.00;;;18.70;70.40;;;21.38;52.68;101734.19;5031885;28;20233;-58
2022/09/12 00:06:15;;;;;;;4.93;4.53;;;18.70;70.50;;;21.39;52.14;101740.38;5031785;28;20198;-59
2022/09/12 00:08:50;;;;;;;4.83;4.33;;;18.70;70.40;;;21.38;52.28;101734.19;5032448;28;20221;-60
2022/09/12 00:11:17;;;;;;;6.30;4.23;;;18.70;70.30;;;21.36;52.61;101730.94;5032544;28;20186;-56
2022/09/12 00:13:45;;;;;;;4.47;4.07;;;18.70;70.30;;;21.34;52.14;101733.00;5031886;28;20214;-55
2022/09/12 00:16:20;;;;;;;4.50;4.10;;;18.70;70.40;;;21.29;52.38;101730.16;5032197;28;20198;-60
2022/09/12 00:18:49;;;;;;;4.90;4.50;;;18.60;70.30;;;21.28;52.53;101728.50;5031179;28;20593;-59
2022/09/12 00:21:17;;;;;;;4.70;3.73;;;18.60;70.50;;;21.26;52.56;101729.78;5031630;28;20241;-58
2022/09/12 00:23:46;;;;;;;6.70;4.47;;;18.60;70.70;;;21.23;53.11;101731.03;5032633;28;20206;-57
2022/09/12 00:26:14;;;;;;;7.27;5.07;;;18.50;70.70;;;21.21;52.97;101725.09;5031934;28;20225;-60
2022/09/12 00:28:41;;;;;;;6.07;4.70;;;18.50;70.80;;;21.16;52.40;101719.56;5031790;28;20272;-59
2022/09/12 00:31:12;;;;;;;5.23;4.73;;;18.40;70.80;;;21.11;52.49;101706.00;5031758;28;20191;-58
2022/09/12 00:33:42;;;;;;;8.40;5.23;;;18.30;71.00;;;21.06;53.05;101703.16;5031033;28;20225;-59
2022/09/12 00:36:14;;;;;;;7.03;4.63;;;18.30;71.20;;;21.01;53.38;101708.34;5030985;28;20610;-57
2022/09/12 00:38:42;;;;;;;4.97;4.37;;;18.30;71.50;;;20.99;53.30;101707.72;5030919;28;20229;-55
2022/09/12 00:41:16;;;;;;;4.73;4.33;;;18.30;71.50;;;20.94;52.91;101699.56;5030505;28;20207;-58
2022/09/12 00:43:47;;;;;;;4.77;4.37;;;18.20;71.70;;;20.91;53.56;101705.34;5030937;28;20232;-55
2022/09/12 00:46:40;;;;;;;5.10;4.60;;;18.20;71.80;;;20.83;53.66;101703.75;5030921;28;20178;-55
2022/09/12 00:49:17;;;;;;;5.30;4.77;;;18.10;71.90;;;20.83;53.82;101697.56;5028189;28;20230;-58
2022/09/12 00:51:51;;;;;;;6.43;4.77;;;18.10;72.20;;;20.83;53.44;101700.25;5030297;28;20222;-60
2022/09/12 00:54:26;;;;;;;5.70;5.10;;;18.10;72.40;;;20.84;54.07;101693.88;5030667;28;20261;-57
2022/09/12 00:57:01;;;;;;;5.17;4.57;;;18.10;72.60;;;20.86;53.74;101691.78;5030591;28;20194;-57
2022/09/12 00:59:37;;;;;;;6.20;4.90;;;18.10;72.50;;;20.85;54.04;101695.50;5030478;28;20196;-56
2022/09/12 01:02:06;;;;;;;5.80;4.60;;;18.10;72.40;;;20.85;53.81;101690.13;5030194;28;20221;-56
2022/09/12 01:04:37;;;;;;;6.67;5.40;;;18.10;72.50;;;20.85;53.48;101685.63;5030363;28;20237;-56
2022/09/12 01:07:07;;;;;;;17.43;15.73;;;18.10;72.30;;;20.84;53.45;101691.19;5030608;28;20213;-60
2022/09/12 01:09:37;;;;;;;5.47;4.90;;;18.10;72.20;;;20.81;53.87;101686.28;5030426;28;20269;-59
2022/09/12 01:12:05;;;;;;;6.07;4.67;;;18.10;72.30;;;20.82;53.42;101685.25;5030091;28;20556;-58
2022/09/12 01:14:34;;;;;;;4.90;4.50;;;18.10;72.50;;;20.82;53.69;101679.91;5030335;28;20399;-60
2022/09/12 01:17:01;;;;;;;5.83;5.33;;;18.00;72.50;;;20.80;53.41;101690.00;5030566;28;20207;-58
2022/09/12 01:20:12;;;;;;;8.80;6.00;;;18.10;72.40;;;20.68;53.67;101695.22;5030378;28;20190;-57
2022/09/12 01:23:21;;;;;;;5.30;4.80;;;18.00;72.60;;;20.61;54.25;101689.09;5029920;28;20301;-58
2022/09/12 01:26:21;;;;;;;4.80;4.40;;;18.00;72.70;;;20.62;54.38;101689.91;5030458;28;20225;-56
2022/09/12 01:29:16;;;;;;;5.77;5.27;;;18.00;72.90;;;20.61;54.45;101682.94;5030099;28;20218;-58
2022/09/12 01:31:59;;;;;;;5.77;5.03;;;18.00;72.80;;;20.58;54.64;101684.19;5034027;28;20198;-59
2022/09/12 01:34:40;;;;;;;5.80;5.30;;;18.00;73.40;;;20.50;54.91;101686.28;5033920;28;20593;-58
2022/09/12 01:37:23;;;;;;;5.53;5.10;;;17.90;73.20;;;20.44;55.02;101681.81;5033909;28;20280;-59
2022/09/12 01:40:02;;;;;;;6.30;5.90;;;17.90;73.40;;;20.38;54.65;101674.66;5033700;28;20186;-59
2022/09/12 01:42:41;;;;;;;5.50;5.00;;;17.80;73.50;;;20.34;55.00;101676.13;5033375;28;20230;-58
2022/09/12 01:45:18;;;;;;;5.20;4.70;;;17.70;74.00;;;20.34;55.26;101670.78;5033754;28;20547;-58
2022/09/12 01:47:55;;;;;;;5.50;5.00;;;17.70;74.80;;;20.37;55.75;101675.69;5033711;28;20232;-58
2022/09/12 01:50:30;;;;;;;7.17;5.40;;;17.70;74.70;;;20.42;55.14;101676.66;5033294;28;20260;-56
2022/09/12 01:53:05;;;;;;;5.77;5.23;;;17.80;74.60;;;20.45;54.96;101680.78;5033525;28;20210;-58
2022/09/12 01:55:40;;;;;;;5.80;5.40;;;17.80;74.50;;;20.47;55.04;101668.00;5033776;28;20209;-58
2022/09/12 01:58:13;;;;;;;6.10;5.60;;;17.80;74.50;;;20.48;55.21;101675.81;5033715;28;20190;-60
2022/09/12 02:00:49;;;;;;;6.30;5.70;;;17.80;74.40;;;20.47;55.39;101671.50;5033219;28;20271;-57
2022/09/12 02:03:25;;;;;;;7.17;6.60;;;17.80;74.40;;;20.43;55.23;101670.31;5033576;28;20206;-57
2022/09/12 02:05:58;;;;;;;6.30;5.80;;;17.80;74.50;;;20.40;55.42;101669.91;5033735;28;20195;-57
2022/09/12 02:08:32;;;;;;;5.00;4.60;;;17.80;74.20;;;20.39;54.99;101670.94;5033463;28;20186;-55
2022/09/12 02:11:06;;;;;;;6.17;5.67;;;17.70;74.30;;;20.39;56.00;101657.56;5033387;28;20663;-59
2022/09/12 02:13:40;;;;;;;5.47;5.00;;;17.70;75.00;;;20.43;55.87;101653.44;5033413;28;20737;-60
2022/09/12 02:16:15;;;;;;;5.73;5.33;;;17.80;75.20;;;20.48;55.61;101650.91;5033403;28;20179;-57
2022/09/12 02:18:51;;;;;;;5.37;4.97;;;17.80;75.20;;;20.50;55.82;101648.84;5033345;28;20194;-57
2022/09/12 02:21:21;;;;;;;5.33;4.93;;;17.80;74.80;;;20.53;55.55;101637.72;5032974;28;20178;-57
2022/09/12 02:23:56;;;;;;;5.07;4.67;;;17.80;74.30;;;20.53;55.12;101643.06;5033331;28;20375;-57
2022/09/12 02:26:31;;;;;;;5.77;5.27;;;17.80;74.20;;;20.52;54.79;101633.41;5033116;28;20179;-57
2022/09/12 02:28:59;;;;;;;5.30;4.90;;;17.80;74.10;;;20.50;55.04;101632.78;5033080;28;20669;-57
2022/09/12 02:31:36;;;;;;;5.37;4.97;;;17.80;73.80;;;20.43;54.60;101632.84;5032750;28;20225;-58
2022/09/12 02:34:20;;;;;;;5.43;5.03;;;17.80;73.70;;;20.36;54.68;101634.75;5033455;28;20209;-56
2022/09/12 02:37:01;;;;;;;5.97;5.47;;;17.70;73.80;;;20.33;55.28;101637.84;5033317;28;20656;-58
2022/09/12 02:39:28;;;;;;;5.63;5.13;;;17.70;74.10;;;20.33;55.25;101639.69;5033483;28;20527;-57
2022/09/12 02:42:00;;;;;;;7.27;5.53;;;17.60;74.10;;;20.31;55.02;101639.09;5032436;28;20236;-56
2022/09/12 02:44:30;;;;;;;5.30;4.80;;;17.60;74.40;;;20.28;55.24;101639.56;5033317;28;20597;-54
2022/09/12 02:47:07;;;;;;;5.17;4.77;;;17.50;74.40;;;20.25;54.89;101632.78;5033562;28;20648;-57
2022/09/12 02:49:36;;;;;;;4.97;4.57;;;17.50;74.50;;;20.27;55.51;101637.91;5032974;28;20272;-57
2022/09/12 02:52:04;;;;;;;6.00;5.50;;;17.50;74.70;;;20.27;55.58;101629.88;5031891;28;20226;-56
2022/09/12 02:54:31;;;;;;;6.40;5.90;;;17.50;74.80;;;20.27;55.48;101624.53;5032986;28;20199;-56
2022/09/12 02:56:59;;;;;;;6.30;5.80;;;17.50;74.90;;;20.29;55.09;101622.47;5032503;28;20186;-56
2022/09/12 02:59:27;;;;;;;5.57;5.17;;;17.50;75.00;;;20.31;55.59;101623.06;5032363;28;20186;-57
2022/09/12 03:02:24;;;;;;;6.50;5.97;;;17.50;74.90;;;20.27;55.26;101619.19;5031625;28;20230;-58
2022/09/12 03:05:20;;;;;;;5.87;5.27;;;17.50;74.60;;;20.19;54.98;101621.06;5032363;28;20191;-58
2022/09/12 03:08:20;;;;;;;5.93;5.33;;;17.50;74.50;;;20.18;55.18;101619.41;5032196;28;20198;-56
2022/09/12 03:11:27;;;;;;;5.80;5.30;;;17.50;74.40;;;20.11;55.19;101617.84;5031594;28;20218;-58
2022/09/12 03:14:11;;;;;;;5.97;5.47;;;17.40;74.30;;;20.09;55.36;101618.03;5032274;28;20252;-59
2022/09/12 03:16:45;;;;;;;6.17;5.67;;;17.40;74.30;;;20.07;55.36;101617.44;5032096;28;20186;-56
2022/09/12 03:19:25;;;;;;;5.70;5.27;;;17.40;74.40;;;20.01;55.35;101618.31;5032055;28;20659;-57
2022/09/12 03:22:08;;;;;;;5.87;5.37;;;17.30;74.30;;;19.99;55.36;101617.66;5032212;28;20238;-57
2022/09/12 03:24:45;;;;;;;6.60;6.00;;;17.30;74.50;;;19.97;55.14;101616.25;5032170;28;20222;-57
2022/09/12 03:27:19;;;;;;;6.60;6.00;;;17.30;74.70;;;19.96;54.97;101620.78;5031580;28;20187;-56
2022/09/12 03:29:48;;;;;;;6.63;5.57;;;17.20;74.60;;;19.95;55.54;101618.31;5031726;28;20226;-59
2022/09/12 03:32:15;;;;;;;9.10;6.93;;;17.20;74.60;;;19.93;55.09;101621.22;5030698;28;20226;-58
2022/09/12 03:34:42;;;;;;;6.27;5.73;;;17.20;74.70;;;19.91;55.45;101617.94;5031723;28;20622;-56
2022/09/12 03:37:11;;;;;;;8.87;8.17;;;17.20;74.80;;;19.89;55.53;101616.50;5031469;28;20195;-56
2022/09/12 03:39:39;;;;;;;6.10;5.47;;;17.20;75.30;;;19.86;55.33;101623.09;5031374;28;20229;-60
2022/09/12 03:42:06;;;;;;;7.97;7.03;;;17.20;75.10;;;19.86;55.61;101620.44;5031002;28;21020;-57
2022/09/12 03:44:33;;;;;;;9.50;8.67;;;17.20;75.30;;;19.87;56.12;101618.59;5031293;28;20187;-56
2022/09/12 03:47:00;;;;;;;7.20;6.50;;;17.20;75.50;;;19.84;55.81;101624.34;5031323;28;20186;-56
2022/09/12 03:49:28;;;;;;;9.73;8.83;;;17.10;75.70;;;19.84;56.05;101622.50;5031062;28;20297;-57
2022/09/12 03:51:55;;;;;;;10.03;7.30;;;17.20;75.50;;;19.85;56.19;101618.78;5030691;28;20218;-56
2022/09/12 03:54:24;;;;;;;5.87;5.30;;;17.20;75.90;;;19.87;56.14;101626.59;5031166;28;20207;-57
2022/09/12 03:56:51;;;;;;;6.00;5.40;;;17.20;75.40;;;19.89;55.65;101616.50;5031187;28;20198;-58
2022/09/12 03:59:19;;;;;;;5.50;5.00;;;17.20;75.30;;;19.91;55.99;101617.94;5031023;28;20241;-59
2022/09/12 04:01:46;;;;;;;6.07;5.57;;;17.20;75.10;;;19.93;55.36;101615.03;5030699;28;20633;-57
2022/09/12 04:04:13;;;;;;;6.03;5.53;;;17.20;74.90;;;19.94;55.63;101612.19;5031179;28;20344;-57
2022/09/12 04:06:41;;;;;;;6.70;6.10;;;17.20;74.80;;;19.95;55.72;101613.81;5029795;28;20240;-57
2022/09/12 04:09:09;;;;;;;6.20;5.63;;;17.20;74.80;;;19.97;55.67;101609.06;5031447;28;20280;-58
2022/09/12 04:11:37;;;;;;;10.67;9.77;;;17.30;75.10;;;19.99;55.37;101609.66;5030450;28;20199;-55
2022/09/12 04:14:05;;;;;;;8.87;8.00;;;17.30;75.10;;;19.97;55.53;101611.72;5031321;28;20186;-58
2022/09/12 04:16:32;;;;;;;9.93;9.03;;;17.30;74.80;;;19.93;55.51;101607.03;5031345;28;20222;-55
2022/09/12 04:18:59;;;;;;;10.27;9.27;;;17.30;74.90;;;19.87;55.65;101610.56;5030928;28;20614;-57
2022/09/12 04:21:27;;;;;;;9.07;8.17;;;17.30;74.80;;;19.84;55.94;101617.16;5030575;28;20718;-57
2022/09/12 04:23:54;;;;;;;8.80;7.97;;;17.20;74.80;;;19.79;55.62;101613.47;5030911;28;20249;-58
2022/09/12 04:26:21;;;;;;;8.80;8.00;;;17.20;74.80;;;19.76;55.84;101613.91;5030699;28;20204;-56
2022/09/12 04:28:53;;;;;;;8.60;7.63;;;17.10;74.70;;;19.72;55.47;101613.50;5029844;28;20191;-59
2022/09/12 04:31:22;;;;;;;9.43;8.63;;;17.00;74.90;;;19.68;55.87;101614.97;5030164;28;20202;-56
2022/09/12 04:33:53;;;;;;;9.40;8.63;;;17.00;75.10;;;19.66;56.05;101614.34;5030819;28;20268;-60
2022/09/12 04:36:21;;;;;;;9.47;8.53;;;17.00;75.30;;;19.64;55.89;101611.06;5030625;28;20178;-57
2022/09/12 04:38:50;;;;;;;9.70;8.80;;;16.90;75.50;;;19.63;56.29;101613.97;5030914;28;20244;-59
2022/09/12 04:41:20;;;;;;;9.80;8.80;;;16.90;75.70;;;19.62;55.93;101615.00;5030523;28;20190;-58
2022/09/12 04:43:54;;;;;;;8.80;8.00;;;16.90;75.90;;;19.62;56.46;101612.31;5030801;28;20242;-59
2022/09/12 04:46:21;;;;;;;9.83;8.37;;;16.90;76.10;;;19.65;56.44;101609.22;5030683;28;20186;-58
2022/09/12 04:48:49;;;;;;;10.50;9.43;;;16.90;75.90;;;19.66;56.19;101613.56;5030406;28;20194;-57
2022/09/12 04:51:26;;;;;;;12.33;11.23;;;16.90;75.70;;;19.63;56.25;101614.81;5030153;28;20245;-59
2022/09/12 04:53:57;;;;;;;13.67;11.90;;;16.90;76.10;;;19.53;56.86;101609.91;5030946;28;20191;-58
2022/09/12 04:56:26;;;;;;;11.97;10.87;;;16.90;76.60;;;19.45;56.84;101620.00;5030829;28;20237;-55
2022/09/12 04:58:57;;;;;;;12.73;11.60;;;16.80;76.50;;;19.35;57.47;101616.94;5030398;28;20218;-58
2022/09/12 05:01:26;;;;;;;11.77;10.67;;;16.80;76.70;;;19.30;57.35;101608.72;5030218;28;20264;-57
2022/09/12 05:03:55;;;;;;;9.47;8.67;;;16.70;76.90;;;19.30;57.33;101619.41;5030900;28;20711;-55
2022/09/12 05:06:26;;;;;;;9.40;8.60;;;16.70;77.20;;;19.32;57.39;101614.69;5033608;28;20264;-57
2022/09/12 05:08:55;;;;;;;11.37;10.40;;;16.70;77.40;;;19.36;57.37;101615.91;5034488;28;20264;-57
2022/09/12 05:11:26;;;;;;;13.90;12.57;;;16.70;77.30;;;19.36;57.08;101621.25;5049144;28;20272;-56
2022/09/12 05:14:15;;;;;;;12.13;11.03;;;16.70;77.30;;;19.32;57.23;101618.16;5034205;28;20218;-56
2022/09/12 05:16:42;;;;;;;10.30;9.27;;;16.70;76.80;;;19.32;57.54;101617.34;5033834;28;20190;-56
2022/09/12 05:19:16;;;;;;;11.07;10.17;;;16.70;77.30;;;19.36;57.45;101626.59;5033768;28;20771;-57
2022/09/12 05:21:43;;;;;;;12.77;11.47;;;16.70;77.30;;;19.36;57.17;101629.25;5033847;28;20539;-57
2022/09/12 05:24:10;;;;;;;11.30;10.30;;;16.70;77.00;;;19.28;57.17;101627.59;5032843;28;20236;-56
2022/09/12 05:26:38;;;;;;;11.80;10.80;;;16.70;76.80;;;19.22;57.43;101630.31;5033852;28;20644;-57
2022/09/12 05:29:05;;;;;;;11.80;10.80;;;16.60;76.90;;;19.16;57.52;101617.81;5033504;28;20194;-57
2022/09/12 05:31:34;;;;;;;9.83;8.93;;;16.60;77.10;;;19.15;57.81;101624.16;5033335;28;20210;-58
2022/09/12 05:34:08;;;;;;;11.03;10.07;;;16.50;77.40;;;19.17;57.63;101622.09;5033638;28;20694;-59
2022/09/12 05:36:37;;;;;;;11.20;10.20;;;16.50;77.40;;;19.19;57.71;101620.03;5033787;28;20194;-59
2022/09/12 05:39:04;;;;;;;11.40;10.30;;;16.50;77.60;;;19.18;57.97;101618.41;5033870;28;20195;-61
2022/09/12 05:41:33;;;;;;;10.37;9.47;;;16.50;77.60;;;19.21;57.98;101616.13;5033335;28;20190;-58
2022/09/12 05:44:03;;;;;;;11.73;10.53;;;16.50;77.80;;;19.27;57.85;101603.81;5033102;28;20286;-59
2022/09/12 05:46:37;;;;;;;10.63;9.70;;;16.50;77.80;;;19.33;57.63;101603.78;5033705;28;20595;-58
2022/09/12 05:49:08;;;;;;;9.93;9.03;;;16.60;78.20;;;19.40;57.89;101609.94;5033406;28;20182;-59
2022/09/12 05:51:39;;;;;;;10.10;9.07;;;16.70;77.90;;;19.46;57.36;101606.44;5032929;28;20265;-57
2022/09/12 05:54:10;;;;;;;10.20;9.13;;;16.70;77.70;;;19.48;57.10;101609.72;5033709;28;20677;-57
2022/09/12 05:56:40;;;;;;;10.80;9.90;;;16.70;77.40;;;19.48;57.56;101607.03;5033470;28;20558;-59
2022/09/12 05:59:12;;;;;;;11.13;9.57;;;16.70;77.40;;;19.45;57.05;101606.63;5034072;28;20659;-62
2022/09/12 06:01:41;;;;;;;9.00;8.30;;;16.80;77.40;;;19.49;57.66;101613.22;5033260;28;20213;-60
2022/09/12 06:04:09;;;;;;;11.03;9.93;;;16.80;78.00;;;19.59;57.61;101606.38;5034532;28;20293;-57
2022/09/12 06:06:40;;;;;;;9.67;8.83;;;16.80;78.40;;;19.74;57.48;101603.44;5034494;28;20195;-61
2022/09/12 06:09:09;;;;;;;16.50;14.90;;;16.90;78.10;;;19.83;57.13;101604.00;5052969;28;20217;-59
2022/09/12 06:11:39;;;;;;;12.03;10.83;;;17.00;77.70;;;19.93;57.20;101605.19;5046466;28;20211;-61
2022/09/12 06:14:09;;;;;;;11.17;10.17;;;17.10;77.70;;;19.98;56.60;101608.03;5048413;28;20560;-56
2022/09/12 06:16:37;;;;;;;10.17;9.23;;;17.20;77.20;;;19.99;56.37;101598.97;5044914;28;20202;-58
2022/09/12 06:19:12;;;;;;;10.77;9.73;;;17.30;76.90;;;20.07;56.75;101593.38;5052816;28;20237;-59
2022/09/12 06:21:40;;;;;;;9.70;8.77;;;17.30;76.90;;;20.19;56.20;101591.66;5051517;28;20197;-56
2022/09/12 06:24:10;;;;;;;10.87;9.87;;;17.40;76.90;;;20.27;55.83;101589.78;5044765;28;20194;-58
2022/09/12 06:26:38;;;;;;;12.10;10.90;;;17.50;76.70;;;20.29;55.93;101598.41;5051328;28;20267;-56
2022/09/12 06:29:06;;;;;;;12.30;11.20;;;17.50;76.30;;;20.30;55.87;101590.16;5047890;28;20189;-57
2022/09/12 06:31:36;;;;;;;12.63;11.43;;;17.60;76.20;;;20.24;56.11;101597.19;5047254;28;20279;-58
2022/09/12 06:34:08;;;;;;;10.07;9.07;;;17.60;75.80;;;20.22;56.28;101599.28;5052566;28;20189;-57
2022/09/12 06:36:39;;;;;;;10.63;9.53;;;17.60;75.90;;;20.24;56.30;101602.53;5052289;28;20186;-57
2022/09/12 06:39:11;;;;;;;11.57;10.47;;;17.60;76.00;;;20.24;55.94;101591.84;5052150;28;20267;-59
2022/09/12 06:41:38;;;;;;;11.20;10.10;;;17.60;76.00;;;20.27;56.46;101595.13;5053437;28;20180;-57
2022/09/12 06:44:14;;;;;;;10.23;9.13;;;17.60;76.20;;;20.31;56.38;101599.00;5053390;28;20174;-58
2022/09/12 06:46:49;;;;;;;12.80;11.60;;;17.60;76.20;;;20.31;56.28;101597.13;5047663;28;20272;-58
2022/09/12 06:49:17;;;;;;;12.03;10.93;;;17.60;76.40;;;20.31;56.59;101596.31;5044422;28;20194;-60
2022/09/12 06:51:45;;;;;;;13.33;11.93;;;17.60;76.50;;;20.35;56.27;101603.69;5040730;28;20648;-57
2022/09/12 06:54:15;;;;;;;12.50;11.30;;;17.60;76.70;;;20.41;56.34;101596.66;5034157;28;20547;-60
2022/09/12 06:56:43;;;;;;;16.17;13.77;;;17.60;76.80;;;20.57;56.42;101593.44;5059892;28;20652;-57
2022/09/12 06:59:11;;;;;;;13.20;11.83;;;17.70;77.10;;;20.69;56.25;101592.50;5045986;28;20190;-59
2022/09/12 07:01:40;;;;;;;13.90;12.50;;;17.80;77.00;;;20.79;55.74;101594.69;5032060;28;20241;-60
2022/09/12 07:04:09;;;;;;;13.87;12.33;;;17.90;76.90;;;20.89;55.79;101595.00;5035626;28;20755;-57
2022/09/12 07:06:41;;;;;;;13.30;12.10;;;18.00;76.90;;;21.15;55.55;101594.75;5038001;28;20257;-57
2022/09/12 07:09:12;;;;;;;12.77;10.20;;;18.10;77.20;;;21.54;55.61;101602.31;5049324;28;20224;-57
2022/09/12 07:11:41;;;;;;;14.03;12.70;;;18.30;77.70;;;22.05;54.99;101596.50;5051377;28;20221;-58
2022/09/12 07:14:12;;;;;;;15.47;13.07;;;18.60;77.60;;;22.59;53.64;101605.34;5032589;28;20215;-57
2022/09/12 07:16:40;;;;;;;10.53;9.57;;;19.00;76.60;;;23.20;52.87;101602.22;5031857;28;20259;-58
2022/09/12 07:19:10;;;;;;;13.40;12.10;;;19.40;76.50;;;23.76;50.99;101599.59;5032044;28;20305;-55
2022/09/12 07:21:40;;;;;;;14.57;13.17;;;19.90;74.10;;;24.24;49.82;101591.09;5031103;28;20177;-58
2022/09/12 07:24:09;;;;;;;31.87;27.50;;;20.40;72.50;;;24.80;49.20;101595.50;5031305;28;20222;-58
2022/09/12 07:26:39;;;;;;;14.77;13.30;;;20.80;72.50;;;25.39;48.14;101596.53;5031556;28;20194;-58
2022/09/12 07:29:12;;;;;;;15.17;13.67;;;21.30;70.70;;;25.86;46.41;101602.25;5041126;28;20697;-57
2022/09/12 07:32:01;;;;;;;15.03;13.53;;;21.80;68.60;;;26.42;45.48;101592.78;5050563;28;20312;-57
2022/09/12 07:34:28;;;;;;;17.00;15.33;;;22.20;66.80;;;26.89;44.03;101598.28;5049475;28;20198;-59
2022/09/12 07:36:57;;;;;;;16.93;15.03;;;22.70;65.60;;;27.27;42.89;101585.22;5049532;28;20213;-59
2022/09/12 07:39:28;;;;;;;15.27;13.77;;;23.10;64.60;;;27.75;42.25;101585.94;5042762;28;20509;-60
2022/09/12 07:41:57;;;;;;;13.40;12.17;;;23.50;63.20;;;28.38;41.96;101587.38;5045315;28;20267;-58
2022/09/12 07:44:25;;;;;;;16.40;14.77;;;23.90;64.30;;;28.83;40.15;101584.63;5050617;28;20198;-59
2022/09/12 07:46:53;;;;;;;12.43;11.33;;;24.30;60.10;;;29.21;39.81;101583.19;5050951;28;20198;-58
2022/09/12 07:49:20;;;;;;;14.33;13.10;;;24.70;60.30;;;29.62;39.03;101579.16;5050993;28;20269;-58
2022/09/12 07:51:47;;;;;;;14.03;12.50;;;25.10;59.30;;;30.06;37.66;101584.59;5050355;28;20210;-59
2022/09/12 07:54:17;;;;;;;15.20;13.80;;;25.40;58.00;;;30.54;36.53;101588.28;5050849;28;20197;-60
2022/09/12 07:56:48;;;;;;;13.17;12.07;;;25.70;56.90;;;30.70;36.09;101584.31;5050770;28;20217;-60
2022/09/12 07:59:17;;;;;;;13.50;12.10;;;26.00;55.70;;;30.66;36.51;101594.16;5056617;28;20698;-57
2022/09/12 08:02:05;;;;;;;15.67;14.17;;;26.30;55.20;;;30.57;36.43;101593.16;5051611;28;20214;-59
2022/09/12 08:04:33;;;;;;;14.50;13.00;;;26.40;54.70;;;30.67;36.82;101588.41;5049845;28;20284;-59
2022/09/12 08:07:01;;;;;;;13.40;12.10;;;26.50;54.40;;;30.72;36.18;101593.81;5050793;28;20190;-60
2022/09/12 08:09:30;;;;;;;16.73;14.03;;;26.60;54.00;;;30.44;36.20;101594.63;5048665;28;20198;-57
2022/09/12 08:12:00;;;;;;;15.60;14.10;;;26.50;52.90;;;30.04;36.49;101592.22;5045012;28;20897;-58
2022/09/12 08:14:28;;;;;;;15.70;14.13;;;26.40;52.90;;;29.59;37.37;101593.31;5050487;28;20635;-61
2022/09/12 08:16:55;;;;;;;14.47;13.17;;;26.30;53.30;;;29.15;38.01;101600.50;5050108;28;20201;-60
2022/09/12 08:19:23;;;;;;;15.97;14.37;;;26.00;53.70;;;28.68;38.55;101587.38;5051170;28;20198;-59
2022/09/12 08:21:50;;;;;;;15.07;13.63;;;25.70;54.10;;;28.15;39.47;101591.44;5051368;28;20237;-57
2022/09/12 08:24:17;;;;;;;17.53;14.73;;;25.40;54.60;;;27.58;40.33;101588.88;5052127;28;20193;-57
2022/09/12 08:26:46;;;;;;;14.73;13.33;;;24.90;55.40;;;27.19;41.15;101590.31;5051588;28;20189;-56
2022/09/12 08:29:13;;;;;;;18.47;16.30;;;24.60;56.60;;;26.85;41.89;101601.50;5051918;28;20213;-58
2022/09/12 08:31:41;;;;;;;14.97;13.47;;;24.20;57.50;;;26.55;42.39;101600.47;5052008;28;21051;-58
2022/09/12 08:34:09;;;;;;;16.17;14.77;;;24.00;58.10;;;26.36;43.67;101597.34;5051365;28;20673;-56
2022/09/12 08:36:36;;;;;;;15.53;13.87;;;23.70;59.00;;;26.19;43.53;101589.38;5050955;28;20243;-58
2022/09/12 08:39:06;;;;;;;16.27;14.57;;;23.50;59.70;;;26.12;44.01;101593.34;5050136;28;20194;-60
2022/09/12 08:41:39;;;;;;;13.90;12.37;;;23.30;60.60;;;26.10;44.92;101588.19;5049726;28;20182;-60
2022/09/12 08:44:45;;;;;;;15.70;14.17;;;23.20;61.10;;;26.06;44.44;101594.34;5050082;28;20182;-62
2022/09/12 08:47:24;;;;;;;15.93;14.43;;;23.20;61.70;;;25.96;44.92;101588.88;5051026;28;20414;-60
2022/09/12 08:50:05;;;;;;;16.30;14.57;;;23.10;61.90;;;25.92;45.37;101593.94;5050275;28;20181;-60
2022/09/12 08:52:41;;;;;;;13.73;12.33;;;23.10;62.30;;;25.97;45.42;101590.47;5049654;28;20218;-55
2022/09/12 08:55:30;;;;;;;14.00;12.50;;;23.00;62.50;;;26.10;44.76;101584.69;5050497;28;20205;-56
2022/09/12 08:57:59;;;;;;;14.53;13.10;;;23.10;62.80;;;26.33;44.51;101589.75;5049878;28;20201;-55
2022/09/12 09:00:40;;;;;;;16.37;14.57;;;23.10;63.00;;;26.42;44.63;101588.19;5049688;28;20190;-59
2022/09/12 09:04:01;;;;;;;17.13;15.37;;;23.20;62.90;;;26.49;44.90;101580.69;5050018;28;20267;-58
2022/09/12 09:06:58;;;;;;;16.50;14.80;;;23.30;62.90;;;26.62;44.34;101577.56;5040671;28;20613;-58
2022/09/12 09:09:41;;;;;;;17.33;15.53;;;23.40;62.90;;;26.72;44.39;101574.91;5051127;28;20685;-58
2022/09/12 09:12:20;;;;;;;17.27;15.47;;;23.50;62.70;;;26.81;44.37;101572.56;5051046;28;20236;-59
2022/09/12 09:15:11;;;;;;;15.00;13.50;;;23.50;62.50;;;26.94;44.18;101571.25;5051535;28;20626;-58
2022/09/12 09:17:45;;;;;;;14.07;12.57;;;23.60;62.30;;;27.18;43.91;101569.75;5051186;28;20651;-59
2022/09/12 09:20:27;;;;;;;15.23;13.57;;;23.70;62.40;;;27.43;43.44;101567.19;5051167;28;20214;-61
2022/09/12 09:23:02;;;;;;;15.90;14.27;;;23.90;62.00;;;27.69;42.55;101565.38;5050594;28;20579;-64
2022/09/12 09:25:49;;;;;;;13.97;12.57;;;24.10;61.70;;;27.91;42.51;101563.22;5051270;28;20186;-60
2022/09/12 09:28:22;;;;;;;15.87;14.17;;;24.30;61.50;;;28.16;41.79;101557.84;5051271;28;20610;-57
2022/09/12 09:30:51;;;;;;;12.13;10.87;;;24.40;61.50;;;28.33;41.98;101560.28;5050333;28;20190;-58
2022/09/12 09:33:24;;;;;;;12.97;11.70;;;24.60;60.70;;;28.49;41.40;101559.19;5049589;28;20609;-58
2022/09/12 09:36:04;;;;;;;16.00;14.40;;;24.80;60.20;;;28.55;40.96;101558.88;5049784;28;20259;-60
2022/09/12 09:38:46;;;;;;;14.27;12.87;;;24.90;59.20;;;28.60;40.88;101560.81;5049822;28;20185;-58
2022/09/12 09:41:35;;;;;;;14.77;13.37;;;25.00;59.20;;;28.60;40.53;101550.78;5049896;28;20181;-59
2022/09/12 09:44:03;;;;;;;13.70;12.33;;;25.10;58.60;;;28.52;40.67;101558.63;5065284;28;20194;-61
2022/09/12 09:46:32;;;;;;;14.60;13.20;;;25.10;58.30;;;28.26;40.99;101555.16;5051966;28;20656;-62
2022/09/12 09:49:02;;;;;;;12.90;11.70;;;25.10;58.20;;;28.13;41.36;101558.38;5049940;28;20650;-58
2022/09/12 09:51:36;;;;;;;15.03;13.60;;;25.00;58.40;;;28.10;41.66;101565.16;5049591;28;20306;-58
2022/09/12 09:54:17;;;;;;;14.17;12.87;;;25.00;59.40;;;28.07;41.52;101562.19;5053184;28;20182;-58
2022/09/12 09:56:44;;;;;;;12.70;11.50;;;24.90;58.70;;;27.98;41.58;101558.38;5052942;28;20190;-60
2022/09/12 09:59:16;;;;;;;11.50;10.37;;;24.90;58.50;;;27.94;41.62;101552.66;5053189;28;20604;-58
2022/09/12 10:01:48;;;;;;;14.77;12.37;;;24.90;58.40;;;27.76;41.63;101555.91;5052243;28;20190;-58
2022/09/12 10:04:23;;;;;;;12.70;11.47;;;24.70;57.80;;;27.51;42.28;101555.84;5052525;28;20200;-60
2022/09/12 10:06:53;;;;;;;12.00;10.70;;;24.70;58.30;;;27.39;42.21;101550.69;5053125;28;20198;-61
2022/09/12 10:09:25;;;;;;;12.83;10.27;;;24.60;58.20;;;27.25;41.86;101559.50;5052326;28;20218;-57
2022/09/12 10:11:55;;;;;;;11.27;9.70;;;24.50;57.80;;;27.20;42.39;101556.78;5052178;28;20276;-57
2022/09/12 10:14:37;;;;;;;11.73;10.53;;;24.40;58.10;;;27.10;41.95;101562.19;5052849;28;20190;-60
2022/09/12 10:17:27;;;;;;;10.37;9.27;;;24.30;58.10;;;27.03;42.35;101550.78;5051536;28;20218;-60
2022/09/12 10:20:03;;;;;;;10.30;9.17;;;24.30;58.00;;;27.03;42.52;101539.97;5052266;28;20204;-62
2022/09/12 10:22:48;;;;;;;9.30;8.17;;;24.20;58.20;;;26.97;42.00;101546.41;5051355;28;20210;-60
2022/09/12 10:25:20;;;;;;;8.40;7.27;;;24.10;57.80;;;26.75;41.80;101549.28;5052251;28;20221;-56
2022/09/12 10:27:56;;;;;;;9.53;8.57;;;24.00;57.80;;;26.56;41.93;101539.94;5052134;28;20190;-59
2022/09/12 10:30:27;;;;;;;7.70;5.90;;;23.90;56.80;;;26.61;41.38;101538.09;5051973;28;20744;-56